Terminal Aerodrome Forecast
Issued by NWS

Home | Current Version | Previous Version | Text Only | Print | Product List | Glossary On
Versions: 1 2 3 4 5 6 7 8 9 10 11 12 13 14 15 16 17 18 19 20 21
099
FTUS46 KMFR 180750 AAA
TAFRBG
TAF AMD
KRBG 180750Z 1808/1906 16008KT P6SM -RA BKN060 OVC090 WS020/18040KT
     FM181000 17010G19KT 5SM RA BR SCT020 BKN035 OVC050
     FM181800 17008G17KT 5SM -SHRA SCT010 OVC035
     FM190000 18004KT 6SM -RA BR OVC050
     FM190300 00000KT 4SM -RA BR OVC050=

USA.gov is the U.S. government's official web portal to all federal, state and local government web resources and services.